Clarksburg, California
Current Conditions -  °F | °C
As of 6:53 AM on Sunday 21 Dec 2014 (Local Time) from KSAC Reporting Station
Overcast Overcast  
Wind Chill: 57°   Ceiling: 1000
Heat Index: 57°   Visibility: 10mi
Dew Point: 55°   Wind: 6mph
Humidity: 93%   Direction: 130°SE
Pressure: 30.25"   Gusts: NA
Location:  38.42°N, 121.53°W
Report Text: KSAC 211453Z 13005KT 10SM OVC010 14/13 A3025 RMK AO2 SLP244 T01390128 50002
Loading
Personal Weather Stations






























Interactive Weather Map New forecast layout! Learn more

10-Day Weather Forecast

Advertisements
Track Severe Weather on mobile